Aérodrome :
LOGIN :

S'inscrire | Disclaimer

   EN    FR    IT 

 










Légende :    VFR   VFR Marginal   IFR   IFR Intensif   IFR Très Intensif
Visi : 
Plafond : 
>= 8 km
>= 3000ft
5 à 8 km
1000 à 3000 ft
1500m à 5 km
500 à 1000 ft
800 à 1500m
200 à 500 ft
< 800m
< 200 ft
Symboles :   Orages  Brouillard  Fortes neiges  Fortes précipitations  Vent > 20 kt
SIGMETs :   Divers  Orages  Givrage  Turbulence  Onde Orograph.  Cendres Volcan.






- Altitude de l'aérodrome : 302 ft


LFPM - Melun Villaroche

DERNIER METAR :
  • 190530Z AUTO 00000KT 9000 OVC046 04/04 Q1017

METARs EXPIRÉS :
  • 190500Z AUTO 31002KT 9999 OVC049 04/04 Q1017
  • 190430Z AUTO 27004KT 8000 NSC 04/04 Q1017
  • 190400Z AUTO 28004KT 9999 OVC049 05/04 Q1017
  • 190330Z AUTO 32003KT 260V340 9000 OVC049 05/04 Q1017
  • 190300Z AUTO 31004KT 4300 BR NSC 04/03 Q1017

Prévision TAF périmée.
ATIS : +33 1 64 14 28 44



MET'MAP, la Météo Aéronautique d'un coup d'oeil ! - Copyright ORBIFLY Décembre 2007 - Disclaimer

ORBIFLY MET'MAP TEAM :

Programmation & Développement : Alexandra Zaïnal
Conception & Développement : Baudouin d'Aumeries
Co-Programmation & Développement : Marc-Olivier Méhu
Soutien technique & logistique : Manuel Goepfert

Contact : metmap@orbifly.com




SOURCES & CREDITS :

   NOAA